createdAt,value
2018-07-11T00:02:15.582Z,99.90
2018-07-11T00:04:44.084Z,99.90
2018-07-11T00:07:12.906Z,99.90
2018-07-11T00:09:41.328Z,99.90
2018-07-11T00:12:09.756Z,99.90
2018-07-11T00:14:38.192Z,99.90
2018-07-11T00:17:10.800Z,99.90
2018-07-11T00:19:39.322Z,99.60
2018-07-11T00:22:07.805Z,99.30
2018-07-11T00:24:36.239Z,99.70
2018-07-11T00:27:04.879Z,99.80
2018-07-11T00:29:34.276Z,99.90
2018-07-11T00:32:02.780Z,99.90
2018-07-11T00:34:31.248Z,99.90
2018-07-11T00:36:59.724Z,99.40
2018-07-11T00:39:28.279Z,99.30
2018-07-11T00:41:56.728Z,99.20
2018-07-11T00:44:25.207Z,99.30
2018-07-11T00:46:53.700Z,99.60
2018-07-11T00:49:22.227Z,99.90
2018-07-11T00:51:50.763Z,99.90
2018-07-11T00:54:19.546Z,99.90
2018-07-11T00:56:48.016Z,99.90
2018-07-11T00:59:28.404Z,99.90
2018-07-11T01:02:05.632Z,99.90
2018-07-11T01:04:34.315Z,99.90
2018-07-11T01:07:04.584Z,99.90
2018-07-11T01:09:37.443Z,99.90
2018-07-11T01:12:06.404Z,99.90
2018-07-11T01:14:34.953Z,99.90
2018-07-11T01:17:07.304Z,99.80
2018-07-11T01:19:36.439Z,99.70
2018-07-11T01:22:04.864Z,99.70
2018-07-11T01:24:33.503Z,99.40
2018-07-11T01:27:02.202Z,99.60
2018-07-11T01:29:30.599Z,99.80
2018-07-11T01:31:59.073Z,99.80
2018-07-11T01:34:27.506Z,99.90
2018-07-11T01:36:56.205Z,99.90
2018-07-11T01:39:24.665Z,99.90
2018-07-11T01:41:53.134Z,99.70
2018-07-11T01:44:21.603Z,99.60
2018-07-11T01:46:51.293Z,99.40
2018-07-11T01:49:19.743Z,99.60
2018-07-11T01:51:59.464Z,99.60
2018-07-11T01:54:28.679Z,99.20
2018-07-11T01:56:57.145Z,99.20
2018-07-11T01:59:28.775Z,99.10
2018-07-11T02:01:57.231Z,99.20
2018-07-11T02:04:25.735Z,99.10
2018-07-11T02:06:54.184Z,98.90
2018-07-11T02:09:22.667Z,98.90
2018-07-11T02:11:51.129Z,99.10
2018-07-11T02:14:19.580Z,99.40
2018-07-11T02:16:48.120Z,99.60
2018-07-11T02:19:19.128Z,99.50
2018-07-11T02:21:48.476Z,99.30
2018-07-11T02:24:17.052Z,99.50
2018-07-11T02:26:45.464Z,99.60
2018-07-11T02:29:13.944Z,99.70
2018-07-11T02:31:42.480Z,99.90
2018-07-11T02:34:10.974Z,99.90
2018-07-11T02:36:39.377Z,99.90
2018-07-11T02:39:07.783Z,99.90
2018-07-11T02:41:36.195Z,99.90
2018-07-11T02:46:38.197Z,99.90
2018-07-11T02:49:06.801Z,99.90
2018-07-11T02:51:35.287Z,99.90
2018-07-11T02:54:03.743Z,99.90
2018-07-11T02:56:32.141Z,99.90
2018-07-11T02:59:00.705Z,99.90
2018-07-11T03:01:29.167Z,99.90
2018-07-11T03:03:57.630Z,99.90
2018-07-11T03:06:26.216Z,99.90
2018-07-11T03:08:54.655Z,99.90
2018-07-11T03:11:23.077Z,99.90
2018-07-11T03:13:51.515Z,99.90
2018-07-11T03:16:20.017Z,99.90
2018-07-11T03:18:48.418Z,99.90
2018-07-11T03:21:16.964Z,99.90
2018-07-11T03:23:45.422Z,99.90
2018-07-11T03:26:14.001Z,99.90
2018-07-11T03:28:42.456Z,99.90
2018-07-11T03:31:10.860Z,99.90
2018-07-11T03:33:39.295Z,99.90
2018-07-11T03:36:07.756Z,99.90
2018-07-11T03:38:36.223Z,99.90
2018-07-11T03:41:04.699Z,99.90
2018-07-11T03:43:33.143Z,99.90
2018-07-11T03:46:01.774Z,99.90
2018-07-11T03:48:30.400Z,99.90
2018-07-11T03:50:58.830Z,99.90
2018-07-11T03:53:27.272Z,99.90
2018-07-11T03:55:55.773Z,99.90
2018-07-11T03:58:24.217Z,99.90
2018-07-11T04:00:53.773Z,99.90
2018-07-11T04:03:22.385Z,99.90
2018-07-11T04:05:50.798Z,99.90
2018-07-11T04:08:19.200Z,99.90
2018-07-11T04:10:47.624Z,99.90
2018-07-11T04:13:17.720Z,99.90
2018-07-11T04:15:46.413Z,99.90
2018-07-11T04:18:20.864Z,99.90
2018-07-11T04:23:17.445Z,99.90
2018-07-11T04:25:45.996Z,99.90
2018-07-11T04:28:14.404Z,99.90
2018-07-11T04:30:43.620Z,99.90
2018-07-11T04:33:12.156Z,99.90
2018-07-11T04:35:40.642Z,99.90
2018-07-11T04:38:09.130Z,99.90
2018-07-11T04:40:37.707Z,99.90
2018-07-11T04:43:06.452Z,99.90
2018-07-11T04:45:35.017Z,99.90
2018-07-11T04:48:03.720Z,99.90
2018-07-11T04:50:32.288Z,99.90
2018-07-11T04:53:02.019Z,99.90
2018-07-11T04:55:31.083Z,99.90
2018-07-11T04:57:59.552Z,99.90
2018-07-11T05:00:28.024Z,99.90
2018-07-11T05:02:56.874Z,99.90
2018-07-11T05:05:25.560Z,99.90
2018-07-11T05:07:54.220Z,99.50
2018-07-11T05:10:22.844Z,99.00
2018-07-11T05:12:51.241Z,98.80
2018-07-11T05:15:19.768Z,98.60
2018-07-11T05:17:48.177Z,98.50
2018-07-11T05:20:16.620Z,98.20
2018-07-11T05:22:45.117Z,98.00
2018-07-11T05:25:13.559Z,97.80
2018-07-11T05:27:41.963Z,97.60
2018-07-11T05:30:10.421Z,97.80
2018-07-11T05:32:38.820Z,97.00
2018-07-11T05:35:07.298Z,96.70
2018-07-11T05:37:36.646Z,96.20
2018-07-11T05:40:05.216Z,96.00
2018-07-11T05:42:33.720Z,95.90
2018-07-11T05:45:02.317Z,96.00
2018-07-11T05:47:30.818Z,96.10
2018-07-11T05:49:59.307Z,95.80
2018-07-11T05:52:27.775Z,95.60
2018-07-11T05:54:56.170Z,95.50
2018-07-11T05:57:24.587Z,95.60
2018-07-11T05:59:53.906Z,95.80
2018-07-11T06:02:22.326Z,95.80
2018-07-11T06:04:50.886Z,95.50
2018-07-11T06:07:19.428Z,94.80
2018-07-11T06:09:47.880Z,94.30
2018-07-11T06:12:16.328Z,93.20
2018-07-11T06:14:44.826Z,92.10
2018-07-11T06:17:13.234Z,91.60
2018-07-11T06:19:41.636Z,90.60
2018-07-11T06:22:10.073Z,90.20
2018-07-11T06:24:38.496Z,89.50
2018-07-11T06:27:07.024Z,89.20
2018-07-11T06:29:35.440Z,88.30
2018-07-11T06:32:04.486Z,87.70
2018-07-11T06:34:32.961Z,87.60
2018-07-11T06:37:01.413Z,86.60
2018-07-11T06:41:58.120Z,86.70
2018-07-11T06:44:26.677Z,88.80
2018-07-11T06:46:55.119Z,88.30
2018-07-11T06:49:23.581Z,86.90
2018-07-11T06:51:52.053Z,86.10
2018-07-11T06:54:20.564Z,87.10
2018-07-11T06:56:48.968Z,89.90
2018-07-11T06:59:17.916Z,90.90
2018-07-11T07:01:46.340Z,90.90
2018-07-11T07:04:14.816Z,90.90
2018-07-11T07:06:43.210Z,90.90
2018-07-11T07:09:11.682Z,90.60
2018-07-11T07:11:40.180Z,90.00
2018-07-11T07:14:08.673Z,88.70
2018-07-11T07:16:37.176Z,86.70
2018-07-11T07:19:05.784Z,84.50
2018-07-11T07:21:34.245Z,84.30
2018-07-11T07:24:02.659Z,83.40
2018-07-11T07:26:31.122Z,84.90
2018-07-11T07:28:59.579Z,86.90
2018-07-11T07:31:27.975Z,87.70
2018-07-11T07:33:56.388Z,86.90
2018-07-11T07:36:24.808Z,87.30
2018-07-11T07:38:53.328Z,84.70
2018-07-11T07:41:21.765Z,84.30
2018-07-11T07:43:50.237Z,83.90
2018-07-11T07:46:18.778Z,83.40
2018-07-11T07:48:47.328Z,79.00
2018-07-11T07:51:15.984Z,79.00
2018-07-11T07:53:44.466Z,80.50
2018-07-11T07:56:12.938Z,82.00
2018-07-11T07:58:41.416Z,81.70
2018-07-11T08:01:09.904Z,81.20
2018-07-11T08:03:38.590Z,81.70
2018-07-11T08:06:07.004Z,81.10
2018-07-11T08:08:35.417Z,80.40
2018-07-11T08:11:04.029Z,79.30
2018-07-11T08:13:32.568Z,78.10
2018-07-11T08:16:01.720Z,77.90
2018-07-11T08:18:30.180Z,79.20
2018-07-11T08:20:58.815Z,77.80
2018-07-11T08:23:40.551Z,75.80
2018-07-11T08:26:20.527Z,76.00
2018-07-11T08:29:03.644Z,78.00
2018-07-11T08:31:50.853Z,78.20
2018-07-11T08:34:36.017Z,75.80
2018-07-11T08:37:18.694Z,75.40
2018-07-11T08:41:03.076Z,73.80
2018-07-11T08:44:11.034Z,75.10
2018-07-11T08:47:21.844Z,76.60
2018-07-11T08:52:04.786Z,76.60
2018-07-11T08:56:47.136Z,73.90
2018-07-11T09:01:34.003Z,69.60
2018-07-11T09:06:16.037Z,68.90
2018-07-11T09:08:54.087Z,69.20
2018-07-11T09:12:36.360Z,69.00
2018-07-11T09:17:15.936Z,71.10
2018-07-11T09:19:54.636Z,67.70
2018-07-11T09:23:36.073Z,64.70
2018-07-11T09:26:05.164Z,65.90
2018-07-11T09:28:33.562Z,69.50
2018-07-11T09:31:02.007Z,71.50
2018-07-11T09:33:30.494Z,74.30
2018-07-11T09:35:58.964Z,74.10
2018-07-11T09:38:27.391Z,72.70
2018-07-11T09:40:55.947Z,71.60
2018-07-11T09:43:24.398Z,70.10
2018-07-11T09:45:52.959Z,67.20
2018-07-11T09:48:21.489Z,71.30
2018-07-11T09:50:50.155Z,71.50
2018-07-11T09:53:18.703Z,73.30
2018-07-11T09:55:47.153Z,72.10
2018-07-11T09:58:15.743Z,69.60
2018-07-11T10:00:49.533Z,67.50
2018-07-11T10:03:18.641Z,67.30
2018-07-11T10:05:47.111Z,67.40
2018-07-11T10:08:16.065Z,65.10
2018-07-11T10:10:44.663Z,67.60
2018-07-11T10:13:19.960Z,67.40
2018-07-11T10:15:48.366Z,67.90
2018-07-11T10:18:16.811Z,68.80
2018-07-11T10:20:45.302Z,68.20
2018-07-11T10:23:13.776Z,67.30
2018-07-11T10:25:44.088Z,66.40
2018-07-11T10:28:18.616Z,66.40
2018-07-11T10:30:47.208Z,66.40
2018-07-11T10:33:15.643Z,65.30
2018-07-11T10:35:44.116Z,66.70
2018-07-11T10:38:13.401Z,67.90
2018-07-11T10:40:41.891Z,64.00
2018-07-11T10:43:10.623Z,65.60
2018-07-11T10:45:39.476Z,61.90
2018-07-11T10:48:08.182Z,61.80
2018-07-11T10:50:36.736Z,58.10
2018-07-11T10:53:05.336Z,56.80
2018-07-11T10:55:33.748Z,56.00
2018-07-11T10:58:02.314Z,57.00
2018-07-11T11:00:36.663Z,58.60
2018-07-11T11:02:59.694Z,56.90
2018-07-11T11:05:28.171Z,57.90
2018-07-11T11:07:56.591Z,58.50
2018-07-11T11:10:25.964Z,57.00
2018-07-11T11:12:54.436Z,57.60
2018-07-11T11:15:22.916Z,58.10
2018-07-11T11:17:51.302Z,58.30
2018-07-11T11:20:19.722Z,58.30
2018-07-11T11:22:48.211Z,58.80
2018-07-11T11:25:16.756Z,58.00
2018-07-11T11:27:45.246Z,57.50
2018-07-11T11:30:13.658Z,57.80
2018-07-11T11:32:42.158Z,57.10
2018-07-11T11:35:10.671Z,56.60
2018-07-11T11:37:39.241Z,56.70
2018-07-11T11:40:07.670Z,55.20
2018-07-11T11:42:36.541Z,56.50
2018-07-11T11:45:05.040Z,57.20
2018-07-11T11:47:34.328Z,58.10
2018-07-11T11:50:02.773Z,58.90
2018-07-11T11:52:31.184Z,58.50
2018-07-11T11:54:59.656Z,59.00
2018-07-11T11:57:28.199Z,57.90
2018-07-11T11:59:56.648Z,59.00
2018-07-11T12:02:25.180Z,58.10
2018-07-11T12:04:53.765Z,61.60
2018-07-11T12:07:22.221Z,59.00
2018-07-11T12:09:50.677Z,58.40
2018-07-11T12:12:19.168Z,56.70
2018-07-11T12:14:47.600Z,57.20
2018-07-11T12:17:16.109Z,55.80
2018-07-11T12:19:45.213Z,56.60
2018-07-11T12:22:25.077Z,56.60
2018-07-11T12:24:54.236Z,56.30
2018-07-11T12:27:22.726Z,55.00
2018-07-11T12:29:52.434Z,54.80
2018-07-11T12:32:21.280Z,55.10
2018-07-11T12:34:49.763Z,55.70
2018-07-11T12:37:18.846Z,54.80
2018-07-11T12:39:47.689Z,53.00
2018-07-11T12:42:16.228Z,52.30
2018-07-11T12:44:44.926Z,52.40
2018-07-11T12:47:19.324Z,52.80
2018-07-11T12:49:47.860Z,53.90
2018-07-11T12:52:16.417Z,52.60
2018-07-11T12:54:44.980Z,51.70
2018-07-11T12:57:13.575Z,50.90
2018-07-11T12:59:42.079Z,51.30
2018-07-11T13:02:10.963Z,50.50
2018-07-11T13:04:39.445Z,50.60
2018-07-11T13:07:08.165Z,50.60
2018-07-11T13:09:37.701Z,50.60
2018-07-11T13:12:06.818Z,51.10
2018-07-11T13:14:35.515Z,50.80
2018-07-11T13:17:04.042Z,51.10
2018-07-11T13:19:32.425Z,50.30
2018-07-11T13:22:00.845Z,49.50
2018-07-11T13:24:29.263Z,50.20
2018-07-11T13:26:57.740Z,50.30
2018-07-11T13:29:26.285Z,50.40
2018-07-11T13:31:54.877Z,51.00
2018-07-11T13:34:23.327Z,53.20
2018-07-11T13:36:52.783Z,53.20
2018-07-11T13:39:22.318Z,54.40
2018-07-11T13:41:51.552Z,55.40
2018-07-11T13:44:20.084Z,56.70
2018-07-11T13:46:48.694Z,57.80
2018-07-11T13:49:17.096Z,58.90
2018-07-11T13:51:45.788Z,59.20
2018-07-11T13:56:42.562Z,61.40
2018-07-11T13:59:11.045Z,62.90
2018-07-11T14:01:39.508Z,64.50
2018-07-11T14:04:08.079Z,64.00
2018-07-11T14:06:36.621Z,64.90
2018-07-11T14:09:05.149Z,65.90
2018-07-11T14:11:33.641Z,65.40
2018-07-11T14:14:02.690Z,66.20
2018-07-11T14:16:31.137Z,66.50
2018-07-11T14:18:59.598Z,66.90
2018-07-11T14:21:28.029Z,67.10
2018-07-11T14:23:57.912Z,67.10
2018-07-11T14:26:27.412Z,68.00
2018-07-11T14:28:55.850Z,68.60
2018-07-11T14:31:30.277Z,68.80
2018-07-11T14:34:01.205Z,69.10
2018-07-11T14:36:29.655Z,69.00
2018-07-11T14:38:58.180Z,69.60
2018-07-11T14:41:26.693Z,69.90
2018-07-11T14:43:57.364Z,69.70
2018-07-11T14:46:27.377Z,69.90
2018-07-11T14:48:55.834Z,70.30
2018-07-11T14:51:24.568Z,70.00
2018-07-11T14:53:54.276Z,71.30
2018-07-11T14:56:22.829Z,71.80
2018-07-11T14:58:53.677Z,72.30
2018-07-11T15:01:22.728Z,73.00
2018-07-11T15:03:51.274Z,73.10
2018-07-11T15:06:20.014Z,73.60
2018-07-11T15:08:48.827Z,73.40
2018-07-11T15:11:17.285Z,73.90
2018-07-11T15:13:45.947Z,74.60
2018-07-11T15:16:15.301Z,75.10
2018-07-11T15:18:43.771Z,76.40
2018-07-11T15:21:12.735Z,80.60
2018-07-11T15:23:41.189Z,85.20
2018-07-11T15:26:09.692Z,88.50
2018-07-11T15:28:38.238Z,90.20
2018-07-11T15:31:06.887Z,90.80
2018-07-11T15:33:35.429Z,91.20
2018-07-11T15:36:03.871Z,91.70
2018-07-11T15:38:32.389Z,92.70
2018-07-11T15:41:01.565Z,94.10
2018-07-11T15:43:30.597Z,94.70
2018-07-11T15:45:59.770Z,95.40
2018-07-11T15:48:28.669Z,95.90
2018-07-11T15:50:57.374Z,96.40
2018-07-11T15:53:28.985Z,96.50
2018-07-11T15:55:57.511Z,96.70
2018-07-11T15:58:27.479Z,97.10
2018-07-11T16:01:00.007Z,97.00
2018-07-11T16:03:28.481Z,97.10
2018-07-11T16:05:57.064Z,96.90
2018-07-11T16:08:25.435Z,96.90
2018-07-11T16:10:57.401Z,96.30
2018-07-11T16:13:25.801Z,96.30
2018-07-11T16:15:54.377Z,95.80
2018-07-11T16:18:22.890Z,95.90
2018-07-11T16:20:51.897Z,95.80
2018-07-11T16:23:20.331Z,95.50
2018-07-11T16:25:48.803Z,95.70
2018-07-11T16:28:17.313Z,95.80
2018-07-11T16:30:45.767Z,95.80
2018-07-11T16:33:14.275Z,95.40
2018-07-11T16:35:42.664Z,95.20
2018-07-11T16:38:11.265Z,95.30
2018-07-11T16:40:39.693Z,95.50
2018-07-11T16:43:08.149Z,95.20
2018-07-11T16:45:37.115Z,95.20
2018-07-11T16:48:05.631Z,95.90
2018-07-11T16:50:35.259Z,95.90
2018-07-11T16:53:04.612Z,96.00
2018-07-11T16:55:34.981Z,96.30
2018-07-11T16:58:03.506Z,96.30
2018-07-11T17:00:33.695Z,96.40
2018-07-11T17:03:06.611Z,96.60
2018-07-11T17:06:03.469Z,96.80
2018-07-11T17:08:33.284Z,96.60
2018-07-11T17:11:08.099Z,96.20
2018-07-11T17:13:36.785Z,96.30
2018-07-11T17:16:05.405Z,96.20
2018-07-11T17:18:45.151Z,96.60
2018-07-11T17:21:23.460Z,96.70
2018-07-11T17:23:55.171Z,97.20
2018-07-11T17:26:25.976Z,97.80
2018-07-11T17:28:56.224Z,98.40
2018-07-11T17:31:24.998Z,99.10
2018-07-11T17:33:53.453Z,99.40
2018-07-11T17:36:22.015Z,99.90
2018-07-11T17:38:50.630Z,99.50
2018-07-11T17:41:19.098Z,99.80
2018-07-11T17:43:52.079Z,99.90
2018-07-11T17:46:21.789Z,99.90
2018-07-11T17:49:06.481Z,99.90
2018-07-11T17:51:46.381Z,99.90
2018-07-11T17:54:14.944Z,99.90
2018-07-11T17:56:52.323Z,99.90
2018-07-11T18:01:31.498Z,99.90
2018-07-11T18:04:15.186Z,99.90
2018-07-11T18:07:02.291Z,99.90
2018-07-11T18:10:08.652Z,99.90
2018-07-11T18:12:52.330Z,99.90
2018-07-11T18:15:49.824Z,99.90
2018-07-11T18:19:39.370Z,99.90
2018-07-11T18:22:21.722Z,99.90
2018-07-11T18:24:57.876Z,99.90
2018-07-11T18:28:34.774Z,99.90
2018-07-11T18:31:13.252Z,99.90
2018-07-11T18:35:14.252Z,99.90
2018-07-11T18:37:52.290Z,99.90
2018-07-11T18:40:41.452Z,99.90
2018-07-11T18:45:27.404Z,99.90
2018-07-11T18:48:25.557Z,99.90
2018-07-11T18:51:02.521Z,99.90
2018-07-11T18:53:48.088Z,99.90
2018-07-11T18:56:28.303Z,99.90
2018-07-11T18:59:09.553Z,99.90
2018-07-11T19:03:54.889Z,99.90
2018-07-11T19:06:31.802Z,99.90
2018-07-11T19:09:06.579Z,99.90
2018-07-11T19:12:48.804Z,99.90
2018-07-11T19:16:25.389Z,99.90
2018-07-11T19:19:03.660Z,99.90
2018-07-11T19:21:41.187Z,99.90
2018-07-11T19:24:16.580Z,99.90
2018-07-11T19:26:53.925Z,99.90
2018-07-11T19:30:29.984Z,99.90
2018-07-11T19:33:07.458Z,99.90
2018-07-11T19:35:43.198Z,99.90
2018-07-11T19:38:40.150Z,99.90
2018-07-11T19:41:17.632Z,99.90
2018-07-11T19:43:53.668Z,99.90
2018-07-11T19:46:45.356Z,99.90
2018-07-11T19:49:25.388Z,99.90
2018-07-11T19:52:37.088Z,99.90
2018-07-11T19:57:13.562Z,99.90
2018-07-11T19:59:42.132Z,99.90
2018-07-11T20:02:11.014Z,99.90
2018-07-11T20:04:39.420Z,99.90
2018-07-11T20:07:08.374Z,99.90
2018-07-11T20:09:36.822Z,99.90
2018-07-11T20:12:05.828Z,99.90
2018-07-11T20:14:34.276Z,99.90
2018-07-11T20:17:03.208Z,99.90
2018-07-11T20:19:31.656Z,99.90
2018-07-11T20:22:00.110Z,99.90
2018-07-11T20:24:28.836Z,99.90
2018-07-11T20:26:57.771Z,99.90
2018-07-11T20:29:26.272Z,99.90
2018-07-11T20:31:54.834Z,99.90
2018-07-11T20:34:23.316Z,99.90
2018-07-11T20:36:51.826Z,99.90
2018-07-11T20:39:20.648Z,99.90
2018-07-11T20:41:49.217Z,99.90
2018-07-11T20:44:17.684Z,99.90
2018-07-11T20:46:46.725Z,99.90
2018-07-11T20:49:22.718Z,99.90
2018-07-11T20:51:51.861Z,99.90
2018-07-11T20:54:20.382Z,99.90
2018-07-11T20:56:48.768Z,99.90
2018-07-11T20:59:28.512Z,99.90
2018-07-11T21:02:11.048Z,99.90
2018-07-11T21:07:03.580Z,99.90
2018-07-11T21:10:45.680Z,99.90
2018-07-11T21:15:29.570Z,99.90
2018-07-11T21:19:06.680Z,99.90
2018-07-11T21:21:35.986Z,99.90
2018-07-11T21:24:05.318Z,99.90
2018-07-11T21:26:33.794Z,99.90
2018-07-11T21:29:02.208Z,99.90
2018-07-11T21:31:30.757Z,99.90
2018-07-11T21:33:59.198Z,99.90
2018-07-11T21:36:27.637Z,99.90
2018-07-11T21:38:56.078Z,99.90
2018-07-11T21:41:24.573Z,99.90
2018-07-11T21:43:53.025Z,99.90
2018-07-11T21:46:21.792Z,99.90
2018-07-11T21:48:50.236Z,99.90
2018-07-11T21:51:18.699Z,99.90
2018-07-11T21:53:47.100Z,99.90
2018-07-11T21:56:15.578Z,99.90
2018-07-11T21:58:43.992Z,99.90
2018-07-11T22:01:13.028Z,99.90
2018-07-11T22:03:41.524Z,99.90
2018-07-11T22:06:09.975Z,99.90
2018-07-11T22:08:38.422Z,99.90
2018-07-11T22:11:07.150Z,99.90
2018-07-11T22:13:35.572Z,99.90
2018-07-11T22:16:04.024Z,99.90
2018-07-11T22:18:35.816Z,99.90
2018-07-11T22:21:04.121Z,99.90
2018-07-11T22:23:31.515Z,99.90
2018-07-11T22:25:59.035Z,99.90
2018-07-11T22:28:26.340Z,99.90
2018-07-11T22:30:53.618Z,99.90
2018-07-11T22:33:20.969Z,99.90
2018-07-11T22:35:48.322Z,99.90
2018-07-11T22:38:15.640Z,99.90
2018-07-11T22:40:43.676Z,99.90
2018-07-11T22:43:11.072Z,99.90
2018-07-11T22:45:38.353Z,99.90
2018-07-11T22:48:05.650Z,99.90
2018-07-11T22:50:33.034Z,99.90
2018-07-11T22:53:00.347Z,99.90
2018-07-11T22:55:27.671Z,99.90
2018-07-11T22:57:55.004Z,99.90
2018-07-11T23:00:22.309Z,99.90
2018-07-11T23:02:49.591Z,99.90
2018-07-11T23:05:16.924Z,99.90
2018-07-11T23:07:44.229Z,99.90
2018-07-11T23:10:12.407Z,99.90
2018-07-11T23:12:39.788Z,99.90
2018-07-11T23:15:07.091Z,99.90
2018-07-11T23:17:34.459Z,99.90
2018-07-11T23:20:01.738Z,99.90
2018-07-11T23:22:29.073Z,99.90
2018-07-11T23:24:56.374Z,99.90
2018-07-11T23:27:23.778Z,99.90
2018-07-11T23:29:51.092Z,99.90
2018-07-11T23:32:18.419Z,99.90
2018-07-11T23:34:45.716Z,99.90
2018-07-11T23:37:13.046Z,99.90
2018-07-11T23:39:40.326Z,99.90
2018-07-11T23:42:07.655Z,99.90
2018-07-11T23:44:34.964Z,99.90
2018-07-11T23:47:02.253Z,99.90
2018-07-11T23:49:29.571Z,99.90
2018-07-11T23:51:56.920Z,99.90
2018-07-11T23:54:24.224Z,99.90
2018-07-11T23:56:51.841Z,99.90
2018-07-11T23:59:20.381Z,99.90
